Time;durP1;ratioP1;P1;durP2;ratioP2;P2;SDS_P1;SDS_P2;PMS_P1;PMS_P2;Temp;Humidity;BMP_temperature;BMP_pressure;BME280_temperature;BME280_humidity;BME280_pressure;Samples;Min_cycle;Max_cycle;Signal;HPM_P1;HPM_P2
2022/09/13 00:01:12;;;;;;;8.18;4.20;;;;;;;16.69;79.16;100698.09;5024938;28;20028;-70
2022/09/13 00:03:38;;;;;;;8.35;4.47;;;;;;;16.83;79.78;100694.44;5023771;28;20025;-70
2022/09/13 00:06:22;;;;;;;10.55;4.68;;;;;;;16.75;79.66;100697.31;5022740;28;20025;-70
2022/09/13 00:08:48;;;;;;;7.38;4.40;;;;;;;17.02;77.97;100682.75;5023039;28;20021;-71
2022/09/13 00:11:15;;;;;;;7.18;4.68;;;;;;;16.89;78.44;100679.97;5023499;28;20071;-70
2022/09/13 00:13:40;;;;;;;6.78;4.10;;;;;;;16.75;79.15;100670.00;5024096;28;20104;-69
2022/09/13 00:16:10;;;;;;;8.23;4.10;;;;;;;16.79;78.80;100671.28;5022912;28;20116;-69
2022/09/13 00:18:36;;;;;;;9.15;4.18;;;;;;;16.69;79.65;100665.28;5025551;28;20032;-69
2022/09/13 00:21:11;;;;;;;6.50;4.32;;;;;;;16.75;79.31;100670.00;5023409;28;20026;-71
2022/09/13 00:23:36;;;;;;;9.30;4.40;;;;;;;16.68;79.61;100664.47;5023184;28;20021;-69
2022/09/13 00:26:11;;;;;;;6.80;4.60;;;;;;;16.75;79.20;100659.06;5023317;28;20112;-69
2022/09/13 00:28:37;;;;;;;9.00;4.30;;;;;;;16.78;78.94;100653.19;5023327;28;20136;-69
2022/09/13 00:31:04;;;;;;;8.07;4.18;;;;;;;16.74;78.60;100662.84;5023928;28;20049;-69
2022/09/13 00:33:30;;;;;;;5.25;4.13;;;;;;;16.74;79.56;100662.84;5022847;28;20021;-69
2022/09/13 00:35:56;;;;;;;7.55;3.90;;;;;;;16.82;79.82;100654.44;5021105;28;20025;-69
2022/09/13 00:38:22;;;;;;;12.98;4.32;;;;;;;16.92;81.18;100649.44;5023176;28;20045;-70
2022/09/13 00:40:47;;;;;;;6.05;4.30;;;;;;;16.91;81.70;100642.31;5023077;28;20030;-70
2022/09/13 00:43:38;;;;;;;11.60;4.85;;;;;;;16.77;81.80;100646.03;5024051;28;20139;-70
2022/09/13 00:46:04;;;;;;;11.05;5.63;;;;;;;16.53;84.90;100645.47;5024603;28;20028;-71
2022/09/13 00:48:29;;;;;;;12.10;5.35;;;;;;;16.56;85.27;100646.94;5022588;28;20048;-72
2022/09/13 00:50:55;;;;;;;7.82;5.00;;;;;;;16.44;86.24;100641.22;5022598;28;20501;-70
2022/09/13 00:53:32;;;;;;;11.50;6.03;;;;;;;16.13;86.71;100638.09;5023708;28;20087;-69
2022/09/13 00:56:02;;;;;;;13.75;5.18;;;;;;;15.99;88.21;100627.09;5024282;28;20509;-70
2022/09/13 00:58:41;;;;;;;9.18;5.38;;;;;;;15.89;88.91;100637.50;5024441;28;20028;-72
2022/09/13 01:01:10;;;;;;;11.77;6.68;;;;;;;15.86;90.79;100632.47;5024114;28;20025;-71
2022/09/13 01:03:37;;;;;;;8.73;5.93;;;;;;;16.02;88.58;100632.13;5024031;28;20034;-71
2022/09/13 01:06:10;;;;;;;7.55;6.28;;;;;;;15.91;89.63;100624.53;5023747;28;20025;-71
2022/09/13 01:08:38;;;;;;;7.28;5.72;;;;;;;16.02;88.56;100626.69;5025827;28;20032;-71
2022/09/13 01:11:10;;;;;;;5.90;5.30;;;;;;;16.05;88.46;100621.88;5023857;28;20068;-73
2022/09/13 01:13:37;;;;;;;10.82;6.68;;;;;;;16.04;88.37;100622.91;5027083;28;20104;-72
2022/09/13 01:16:03;;;;;;;13.95;7.05;;;;;;;15.91;90.26;100630.00;5028243;28;20025;-72
2022/09/13 01:18:28;;;;;;;10.65;6.53;;;;;;;15.91;89.46;100631.84;5026982;28;20021;-72
2022/09/13 01:21:11;;;;;;;9.50;6.78;;;;;;;15.99;90.18;100627.09;5027086;28;20021;-72
2022/09/13 01:24:10;;;;;;;7.78;6.57;;;;;;;15.78;91.01;100618.97;5026999;28;20081;-73
2022/09/13 01:26:55;;;;;;;10.85;7.30;;;;;;;15.47;93.45;100627.50;5023053;28;20022;-74
2022/09/13 01:29:42;;;;;;;13.93;8.40;;;;;;;15.66;93.87;100636.94;5027869;28;20018;-74
2022/09/13 01:32:16;;;;;;;11.55;8.82;;;;;;;15.65;93.69;100614.25;5026371;28;20059;-74
2022/09/13 01:34:59;;;;;;;11.85;7.53;;;;;;;15.71;92.56;100628.97;5027213;28;20108;-74
2022/09/13 01:37:45;;;;;;;10.63;7.22;;;;;;;15.82;92.71;100620.25;5020263;28;20085;-74
2022/09/13 01:40:19;;;;;;;14.27;7.95;;;;;;;15.70;93.79;100614.47;5026870;28;20361;-74
2022/09/13 01:43:02;;;;;;;17.75;7.93;;;;;;;15.58;94.74;100601.53;5026539;28;20061;-73
2022/09/13 01:45:28;;;;;;;21.77;10.05;;;;;;;15.55;95.83;100601.94;5019900;28;20052;-73
2022/09/13 01:48:08;;;;;;;13.00;8.00;;;;;;;15.53;94.12;100584.94;5028076;28;20033;-74
2022/09/13 01:51:03;;;;;;;16.83;9.18;;;;;;;15.67;95.10;100578.56;5018010;28;20014;-72
2022/09/13 01:53:56;;;;;;;17.95;9.13;;;;;;;15.73;94.51;100575.88;5020810;28;20030;-72
2022/09/13 01:56:28;;;;;;;18.73;9.40;;;;;;;15.83;94.67;100561.84;5019823;28;20055;-72
2022/09/13 01:59:27;;;;;;;15.07;9.70;;;;;;;15.77;95.72;100556.34;5026097;28;20026;-73
2022/09/13 02:02:00;;;;;;;17.23;9.43;;;;;;;15.66;95.67;100550.44;5027520;28;20022;-72
2022/09/13 02:04:37;;;;;;;12.45;9.90;;;;;;;15.69;96.46;100549.16;5024340;28;20079;-74
2022/09/13 02:07:13;;;;;;;15.80;9.02;;;;;;;15.72;95.23;100548.78;5026950;28;20036;-73
2022/09/13 02:09:45;;;;;;;14.93;9.32;;;;;;;15.80;95.41;100543.16;5025933;28;20124;-73
2022/09/13 02:12:16;;;;;;;;;;;;;;;15.89;95.90;100550.13;5025673;28;20022;-73
2022/09/13 02:14:46;;;;;;;21.90;10.35;;;;;;;15.92;95.27;100549.75;5027375;28;19909;-73
2022/09/13 02:17:21;;;;;;;16.58;9.07;;;;;;;15.85;94.65;100548.88;5018869;28;20048;-73
2022/09/13 02:19:57;;;;;;;13.07;9.10;;;;;;;15.83;95.10;100550.94;5026979;28;20017;-73
2022/09/13 02:22:30;;;;;;;15.43;9.40;;;;;;;15.80;94.73;100551.34;5025536;28;20056;-73
2022/09/13 02:25:02;;;;;;;13.63;9.75;;;;;;;15.80;95.92;100556.81;5021561;28;20117;-73
2022/09/13 02:27:31;;;;;;;14.95;9.13;;;;;;;15.63;96.33;100555.44;5026281;28;20021;-72
2022/09/13 02:30:01;;;;;;;15.90;8.70;;;;;;;15.54;96.36;100556.59;5025897;28;20132;-73
2022/09/13 02:32:35;;;;;;;11.55;8.70;;;;;;;15.56;96.66;100551.78;5026490;28;20080;-73
2022/09/13 02:35:04;;;;;;;16.90;9.00;;;;;;;15.58;96.55;100553.25;5026968;28;20067;-73
2022/09/13 02:37:33;;;;;;;13.88;9.38;;;;;;;15.64;96.43;100546.19;5026101;28;20409;-73
2022/09/13 02:40:05;;;;;;;13.52;9.15;;;;;;;15.57;96.65;100545.28;5024099;28;20032;-73
2022/09/13 02:42:40;;;;;;;19.42;8.60;;;;;;;15.64;95.83;100540.72;5025797;28;20032;-73
2022/09/13 02:45:07;;;;;;;19.10;9.80;;;;;;;15.65;96.26;100537.81;5024986;28;20038;-73
2022/09/13 02:47:51;;;;;;;14.65;9.38;;;;;;;15.72;96.05;100533.25;5026023;28;20032;-74
2022/09/13 02:50:52;;;;;;;21.17;9.60;;;;;;;15.68;96.04;100531.13;5023764;28;20035;-73
2022/09/13 02:53:44;;;;;;;18.30;10.05;;;;;;;15.62;96.83;100521.00;5024155;28;20030;-73
2022/09/13 02:56:19;;;;;;;;;;;;;;;15.70;96.21;100518.09;5019221;28;20021;-73
2022/09/13 02:59:14;;;;;;;13.25;9.35;;;;;;;15.78;95.45;100536.19;5025007;28;19909;-73
2022/09/13 03:01:44;;;;;;;21.35;10.77;;;;;;;15.79;95.44;100532.44;5018553;28;20422;-73
2022/09/13 03:04:10;;;;;;;18.98;11.07;;;;;;;15.61;96.96;100524.75;5023610;28;20033;-73
2022/09/13 03:06:37;;;;;;;19.38;10.63;;;;;;;15.62;97.21;100515.53;5028038;28;20029;-73
2022/09/13 03:09:05;;;;;;;15.43;9.50;;;;;;;15.64;96.59;100513.44;5027330;28;20349;-73
2022/09/13 03:12:01;;;;;;;14.65;9.75;;;;;;;15.62;97.12;100510.06;5027825;28;20017;-73
2022/09/13 03:14:42;;;;;;;21.63;10.27;;;;;;;15.97;95.24;100503.59;5024640;28;20029;-73
2022/09/13 03:17:48;;;;;;;19.10;9.00;;;;;;;15.89;95.17;100501.00;5027425;28;20033;-73
2022/09/13 03:20:18;;;;;;;13.90;9.73;;;;;;;15.93;94.10;100506.91;5020526;28;20508;-73
2022/09/13 03:22:50;;;;;;;18.52;11.00;;;;;;;15.93;95.15;100496.81;5023626;28;20025;-73
2022/09/13 03:25:24;;;;;;;15.43;9.95;;;;;;;15.98;94.91;100494.34;5025982;28;20025;-73
2022/09/13 03:28:07;;;;;;;21.38;11.10;;;;;;;16.10;94.01;100502.78;5027649;28;20036;-73
2022/09/13 03:30:37;;;;;;;19.30;10.75;;;;;;;15.76;95.86;100494.63;5021456;28;20025;-74
2022/09/13 03:33:15;;;;;;;16.27;10.38;;;;;;;15.86;95.48;100490.50;5026288;28;20026;-73
2022/09/13 03:35:53;;;;;;;28.00;11.27;;;;;;;15.75;96.93;100491.06;5025683;28;20017;-73
2022/09/13 03:38:32;;;;;;;19.83;11.80;;;;;;;15.72;96.86;100488.75;5025306;28;20036;-74
2022/09/13 03:41:11;;;;;;;23.65;11.68;;;;;;;15.78;96.83;100471.56;5027544;28;20061;-74
2022/09/13 03:43:43;;;;;;;20.25;11.30;;;;;;;15.91;96.36;100482.53;5028175;28;20029;-74
2022/09/13 03:46:14;;;;;;;23.73;11.88;;;;;;;15.90;95.85;100486.28;5026954;28;20017;-74
2022/09/13 03:48:41;;;;;;;19.10;11.75;;;;;;;15.83;96.64;100471.78;5026223;28;20044;-74
2022/09/13 03:51:08;;;;;;;22.17;11.68;;;;;;;15.81;96.56;100465.69;5025934;28;20128;-74
2022/09/13 03:53:38;;;;;;;19.95;11.73;;;;;;;15.79;96.99;100467.78;5026198;28;20518;-75
2022/09/13 03:56:15;;;;;;;19.33;13.43;;;;;;;15.75;97.87;100466.50;5016409;28;20091;-74
2022/09/13 03:58:40;;;;;;;24.75;14.00;;;;;;;15.81;97.15;100464.84;5023027;28;20055;-74
2022/09/13 04:01:06;;;;;;;23.23;13.93;;;;;;;15.91;96.81;100466.16;5027056;28;20029;-74
2022/09/13 04:03:31;;;;;;;31.08;14.52;;;;;;;15.88;97.07;100477.47;5025002;28;20093;-74
2022/09/13 04:05:56;;;;;;;27.38;14.68;;;;;;;15.93;96.94;100469.53;5023534;28;20033;-74
2022/09/13 04:08:22;;;;;;;31.95;13.77;;;;;;;16.07;95.73;100477.78;5026234;28;20025;-74
2022/09/13 04:10:49;;;;;;;23.30;14.50;;;;;;;16.01;96.44;100477.53;5027165;28;20075;-74
2022/09/13 04:13:15;;;;;;;25.23;15.30;;;;;;;15.97;96.92;100470.81;5026088;28;20036;-74
2022/09/13 04:15:40;;;;;;;22.45;14.30;;;;;;;16.08;96.74;100472.09;5042697;28;20025;-74
2022/09/13 04:18:06;;;;;;;25.23;15.95;;;;;;;16.15;96.23;100466.66;5025078;28;20025;-74
2022/09/13 04:20:31;;;;;;;30.13;15.40;;;;;;;16.30;95.22;100478.28;5025991;28;20053;-74
2022/09/13 04:22:56;;;;;;;28.33;16.08;;;;;;;16.38;94.74;100471.78;5025916;28;20013;-74
2022/09/13 04:25:22;;;;;;;27.85;16.33;;;;;;;16.23;95.53;100475.50;5025915;28;20044;-74
2022/09/13 04:27:52;;;;;;;27.52;16.80;;;;;;;16.29;95.28;100476.56;5024866;28;20036;-72
2022/09/13 04:30:18;;;;;;;33.75;20.13;;;;;;;16.42;95.26;100479.34;5020336;28;20084;-73
2022/09/13 04:32:43;;;;;;;35.88;19.05;;;;;;;16.42;95.05;100468.41;5020508;28;20021;-73
2022/09/13 04:35:10;;;;;;;30.98;18.67;;;;;;;16.35;96.63;100489.41;5021659;28;20048;-73
2022/09/13 04:37:36;;;;;;;31.80;19.55;;;;;;;16.24;96.71;100487.31;5018533;28;20025;-73
2022/09/13 04:40:02;;;;;;;44.45;23.77;;;;;;;16.34;96.81;100485.00;5017520;28;20033;-75
2022/09/13 04:42:27;;;;;;;44.65;24.90;;;;;;;16.41;97.38;100483.13;5020160;28;20095;-77
2022/09/13 04:44:54;;;;;;;49.50;26.45;;;;;;;16.37;98.34;100481.88;5022488;28;20117;-77
2022/09/13 04:47:19;;;;;;;53.13;30.45;;;;;;;16.35;98.32;100475.75;5026930;28;20029;-75
2022/09/13 04:49:45;;;;;;;54.03;30.52;;;;;;;16.23;98.98;100469.19;5030508;28;20048;-74
2022/09/13 04:52:10;;;;;;;57.03;33.10;;;;;;;16.25;99.67;100484.34;5028978;28;20021;-74
2022/09/13 04:54:36;;;;;;;54.65;32.70;;;;;;;16.04;100.00;100480.88;5029332;28;20579;-76
2022/09/13 04:57:02;;;;;;;67.75;35.03;;;;;;;16.21;100.00;100476.78;5029196;28;20025;-76
2022/09/13 04:59:27;;;;;;;58.53;31.23;;;;;;;16.16;100.00;100482.84;5028804;28;20393;-75
2022/09/13 05:01:52;;;;;;;66.45;36.88;;;;;;;16.20;100.00;100480.56;5029471;28;20029;-79
2022/09/13 05:04:18;;;;;;;63.40;34.80;;;;;;;16.21;100.00;100484.97;5030743;28;20033;-76
2022/09/13 05:06:43;;;;;;;66.38;34.97;;;;;;;16.00;100.00;100481.31;5030476;28;20036;-78
2022/09/13 05:09:13;;;;;;;60.67;33.00;;;;;;;16.15;100.00;100483.06;5029387;28;20029;-74
2022/09/13 05:11:38;;;;;;;63.80;35.67;;;;;;;16.40;99.83;100481.47;5025478;28;20029;-76
2022/09/13 05:14:11;;;;;;;76.78;40.88;;;;;;;16.01;100.00;100477.53;5024780;28;20152;-75
2022/09/13 05:16:36;;;;;;;82.22;42.67;;;;;;;15.93;100.00;100494.09;5020899;28;20068;-75
2022/09/13 05:19:02;;;;;;;80.40;40.70;;;;;;;16.02;100.00;100501.06;5016675;28;20482;-75
2022/09/13 05:21:29;;;;;;;78.05;40.97;;;;;;;16.11;100.00;100492.72;5029374;28;20389;-75
2022/09/13 05:23:56;;;;;;;87.68;44.35;;;;;;;16.02;100.00;100498.31;5028933;28;20033;-76
2022/09/13 05:26:23;;;;;;;83.57;42.58;;;;;;;15.93;100.00;100491.38;5033708;28;20064;-75
2022/09/13 05:28:49;;;;;;;82.65;41.45;;;;;;;15.93;100.00;100495.97;5034225;28;20025;-75
2022/09/13 05:31:21;;;;;;;83.53;42.35;;;;;;;16.03;100.00;100496.44;5034803;28;20112;-74
2022/09/13 05:33:52;;;;;;;75.25;39.35;;;;;;;15.96;100.00;100501.88;5031181;28;20075;-74
2022/09/13 05:36:18;;;;;;;89.47;45.55;;;;;;;15.99;100.00;100506.94;5024587;28;20068;-74
2022/09/13 05:38:43;;;;;;;71.95;39.88;;;;;;;15.84;100.00;100514.41;5045953;28;20033;-74
2022/09/13 05:41:09;;;;;;;70.80;39.25;;;;;;;15.88;100.00;100509.41;5028532;28;20125;-74
2022/09/13 05:43:35;;;;;;;68.13;40.10;;;;;;;15.97;100.00;100509.03;5028128;28;20025;-74
2022/09/13 05:46:12;;;;;;;78.55;40.05;;;;;;;15.97;100.00;100498.13;5032053;28;20021;-74
2022/09/13 05:48:38;;;;;;;74.95;41.78;;;;;;;15.99;100.00;100496.03;5034370;28;20029;-75
2022/09/13 05:51:05;;;;;;;79.07;44.30;;;;;;;15.84;100.00;100498.03;5028464;28;20033;-76
2022/09/13 05:53:31;;;;;;;71.47;39.03;;;;;;;15.98;100.00;100488.88;5031203;28;20021;-75
2022/09/13 05:55:57;;;;;;;79.85;41.83;;;;;;;16.01;100.00;100488.47;5030693;28;20030;-76
2022/09/13 05:58:22;;;;;;;82.18;40.97;;;;;;;16.02;100.00;100484.69;5030088;28;20037;-76
2022/09/13 06:00:57;;;;;;;77.28;39.92;;;;;;;16.08;100.00;100498.56;5029089;28;20085;-75
2022/09/13 06:03:23;;;;;;;65.80;36.40;;;;;;;16.18;100.00;100499.03;5028895;28;20013;-75
2022/09/13 06:05:48;;;;;;;63.38;34.80;;;;;;;16.21;100.00;100498.63;5027411;28;20013;-75
2022/09/13 06:08:14;;;;;;;66.70;35.80;;;;;;;16.28;100.00;100488.56;5039108;28;20057;-75
2022/09/13 06:10:40;;;;;;;56.10;31.58;;;;;;;16.36;100.00;100490.25;5029591;28;20021;-75
2022/09/13 06:13:05;;;;;;;61.85;33.78;;;;;;;16.31;100.00;100490.06;5027426;28;20098;-74
2022/09/13 06:15:31;;;;;;;56.58;31.77;;;;;;;16.67;100.00;100503.38;5027826;28;20328;-75
2022/09/13 06:17:56;;;;;;;61.42;32.70;;;;;;;16.53;100.00;100506.09;5026841;28;20083;-75
2022/09/13 06:20:22;;;;;;;53.30;30.13;;;;;;;16.43;100.00;100507.50;5025440;28;20029;-73
2022/09/13 06:22:48;;;;;;;61.42;31.48;;;;;;;16.59;100.00;100496.22;5013932;28;20497;-73
2022/09/13 06:25:13;;;;;;;63.47;32.65;;;;;;;16.71;100.00;100499.22;5021186;28;20162;-73
2022/09/13 06:27:39;;;;;;;63.20;32.08;;;;;;;16.77;100.00;100509.34;5020477;28;20021;-74
2022/09/13 06:30:07;;;;;;;55.92;31.45;;;;;;;16.99;99.49;100501.78;5013871;28;20034;-73
2022/09/13 06:32:33;;;;;;;57.42;30.35;;;;;;;16.96;99.16;100513.16;5012885;28;20021;-72
2022/09/13 06:34:59;;;;;;;54.90;31.85;;;;;;;16.86;100.00;100512.69;5017070;28;20025;-72
2022/09/13 06:37:24;;;;;;;62.85;31.60;;;;;;;16.77;100.00;100509.34;5018287;28;20068;-73
2022/09/13 06:39:49;;;;;;;59.67;30.40;;;;;;;17.06;99.44;100506.19;5021129;28;20091;-73
2022/09/13 06:42:15;;;;;;;63.95;30.90;;;;;;;17.11;98.40;100499.28;5018397;28;20029;-73
2022/09/13 06:44:40;;;;;;;56.03;31.00;;;;;;;16.95;99.40;100504.09;5035292;28;20021;-73
2022/09/13 06:47:06;;;;;;;59.55;33.38;;;;;;;16.85;99.91;100500.94;5020321;28;20021;-72
2022/09/13 06:49:31;;;;;;;60.92;33.83;;;;;;;16.90;100.00;100498.41;5018804;28;20029;-73
2022/09/13 06:51:56;;;;;;;59.10;31.20;;;;;;;17.06;100.00;100495.25;5020019;28;20021;-75
2022/09/13 06:54:22;;;;;;;59.15;32.95;;;;;;;17.20;99.49;100498.00;5021480;28;20017;-72
2022/09/13 06:56:47;;;;;;;55.17;29.67;;;;;;;17.14;99.73;100505.13;5021180;28;20099;-73
2022/09/13 06:59:13;;;;;;;57.00;31.05;;;;;;;17.20;99.79;100508.94;5021849;28;20025;-73
2022/09/13 07:01:41;;;;;;;54.45;30.48;;;;;;;17.07;99.51;100510.63;5022546;28;20025;-74
2022/09/13 07:04:13;;;;;;;55.35;30.80;;;;;;;17.01;100.00;100516.06;5039200;28;20026;-73
2022/09/13 07:06:42;;;;;;;49.88;28.35;;;;;;;17.30;99.08;100502.00;5020496;28;20044;-73
2022/09/13 07:09:11;;;;;;;50.47;27.02;;;;;;;17.39;99.09;100499.88;5020702;28;20072;-73
2022/09/13 07:11:39;;;;;;;58.25;25.95;;;;;;;17.13;98.81;100508.09;5036769;28;20033;-73
2022/09/13 07:14:08;;;;;;;52.72;27.50;;;;;;;17.25;98.79;100511.88;5021597;28;20270;-73
2022/09/13 07:16:36;;;;;;;55.42;25.25;;;;;;;17.23;99.08;100514.00;5021084;28;20048;-73
2022/09/13 07:19:05;;;;;;;42.20;23.25;;;;;;;17.28;99.30;100522.44;5035889;28;20029;-73
2022/09/13 07:21:31;;;;;;;46.58;24.88;;;;;;;17.47;98.44;100520.72;5019580;28;20013;-73
2022/09/13 07:23:57;;;;;;;41.00;24.25;;;;;;;17.34;99.22;100521.56;5019245;28;20061;-73
2022/09/13 07:26:26;;;;;;;49.65;25.88;;;;;;;17.46;99.15;100519.88;5018219;28;20053;-73
2022/09/13 07:28:54;;;;;;;41.33;21.60;;;;;;;17.87;97.67;100521.53;5018746;28;20642;-73
2022/09/13 07:31:39;;;;;;;32.53;18.90;;;;;;;17.81;96.38;100519.66;5017388;28;20025;-73
2022/09/13 07:34:07;;;;;;;36.10;19.27;;;;;;;18.13;95.22;100526.09;5015138;28;20048;-73
2022/09/13 07:36:35;;;;;;;32.97;20.55;;;;;;;17.97;94.95;100521.91;5019118;28;20013;-73
2022/09/13 07:39:01;;;;;;;44.03;20.25;;;;;;;17.99;95.35;100530.75;5018639;28;20052;-73
2022/09/13 07:41:28;;;;;;;41.42;20.20;;;;;;;17.61;96.82;100534.19;5018066;28;20093;-73
2022/09/13 07:43:54;;;;;;;31.15;16.15;;;;;;;17.68;95.88;100534.19;5033420;28;20022;-73
2022/09/13 07:46:21;;;;;;;32.75;17.58;;;;;;;17.58;96.77;100528.28;5018110;28;20080;-73
2022/09/13 07:48:48;;;;;;;33.03;16.20;;;;;;;17.82;95.95;100535.03;5018814;28;20101;-73
2022/09/13 07:51:22;;;;;;;32.05;15.65;;;;;;;17.82;96.14;100529.53;5010946;28;20393;-73
2022/09/13 07:53:50;;;;;;;29.50;14.57;;;;;;;18.09;94.77;100530.31;5017915;28;20025;-73
2022/09/13 07:56:21;;;;;;;31.30;16.15;;;;;;;17.97;95.00;100538.34;5018233;28;20120;-73
2022/09/13 07:58:48;;;;;;;38.05;15.20;;;;;;;17.77;94.38;100532.06;5033806;28;20018;-72
2022/09/13 08:01:16;;;;;;;31.83;14.50;;;;;;;17.97;93.91;100537.50;5033674;28;20017;-72
2022/09/13 08:03:42;;;;;;;30.88;12.77;;;;;;;18.07;93.15;100549.72;5017407;28;20071;-73
2022/09/13 08:06:08;;;;;;;29.67;12.10;;;;;;;17.76;94.98;100546.84;5018557;28;20025;-73
2022/09/13 08:08:36;;;;;;;23.02;10.82;;;;;;;17.90;95.23;100548.47;5014980;28;20470;-73
2022/09/13 08:11:04;;;;;;;26.42;10.15;;;;;;;18.23;93.18;100553.03;5018150;28;20032;-73
2022/09/13 08:13:31;;;;;;;26.63;10.15;;;;;;;18.26;92.05;100547.97;5017568;28;20018;-73
2022/09/13 08:16:00;;;;;;;16.63;7.60;;;;;;;18.18;92.47;100540.81;5016982;28;20116;-72
2022/09/13 08:18:25;;;;;;;25.38;8.93;;;;;;;18.31;92.36;100550.03;5018273;28;20029;-73
2022/09/13 08:20:55;;;;;;;28.83;8.60;;;;;;;18.27;91.20;100548.81;5017684;28;20033;-73
2022/09/13 08:23:20;;;;;;;23.75;8.55;;;;;;;18.53;89.94;100547.84;5021665;28;20034;-73
2022/09/13 08:25:46;;;;;;;22.17;7.82;;;;;;;18.51;90.45;100550.78;5018981;28;20018;-74
2022/09/13 08:28:16;;;;;;;15.10;5.70;;;;;;;18.08;90.99;100556.03;5020561;28;20029;-73
2022/09/13 08:30:42;;;;;;;18.92;6.20;;;;;;;18.33;90.78;100553.41;5020702;28;20032;-74
2022/09/13 08:33:09;;;;;;;23.90;5.18;;;;;;;17.95;90.31;100556.91;5021074;28;20613;-74
2022/09/13 08:35:35;;;;;;;24.40;5.25;;;;;;;18.01;90.90;100556.06;5020143;28;20025;-74
2022/09/13 08:38:00;;;;;;;13.52;3.70;;;;;;;18.18;88.92;100556.41;5027311;28;20102;-74
2022/09/13 08:40:54;;;;;;;16.33;3.80;;;;;;;18.57;87.50;100549.91;5029907;28;20074;-76
2022/09/13 08:43:29;;;;;;;15.60;3.33;;;;;;;18.39;86.38;100541.59;5024970;28;20128;-75
2022/09/13 08:46:05;;;;;;;13.27;3.38;;;;;;;18.41;85.21;100544.94;5029531;28;20068;-75
2022/09/13 08:48:34;;;;;;;16.73;2.42;;;;;;;18.50;85.53;100543.63;5018480;28;20045;-76
2022/09/13 08:51:06;;;;;;;11.50;2.45;;;;;;;18.50;83.74;100542.78;5020861;28;20231;-75
2022/09/13 08:53:43;;;;;;;15.15;2.75;;;;;;;18.41;85.44;100544.94;5022272;28;20389;-75
2022/09/13 08:56:11;;;;;;;19.35;3.65;;;;;;;18.41;83.86;100539.47;5023759;28;20033;-75
2022/09/13 08:59:01;;;;;;;16.73;2.65;;;;;;;18.69;80.85;100544.63;5021575;28;20013;-74
2022/09/13 09:01:40;;;;;;;14.88;2.50;;;;;;;18.65;81.79;100543.38;5023337;28;20386;-76
2022/09/13 09:04:13;;;;;;;14.95;2.53;;;;;;;18.42;82.18;100554.84;5024232;28;20021;-75
2022/09/13 09:06:39;;;;;;;20.27;2.97;;;;;;;18.93;81.44;100543.00;5024708;28;20025;-75
2022/09/13 09:09:10;;;;;;;12.27;2.78;;;;;;;19.09;79.41;100547.94;5021720;28;20025;-75
2022/09/13 09:11:41;;;;;;;17.80;2.57;;;;;;;18.73;80.72;100539.56;5022086;28;20014;-75
2022/09/13 09:14:11;;;;;;;13.63;2.58;;;;;;;18.97;80.10;100546.97;5023441;28;20041;-75
2022/09/13 09:16:43;;;;;;;24.85;3.15;;;;;;;19.27;77.99;100549.09;5022299;28;20018;-75
2022/09/13 09:19:33;;;;;;;13.05;2.22;;;;;;;18.91;75.29;100539.66;5022774;28;20013;-75
2022/09/13 09:22:03;;;;;;;16.42;2.38;;;;;;;19.09;74.23;100547.09;5020931;28;20021;-74
2022/09/13 09:24:36;;;;;;;20.40;3.17;;;;;;;19.56;74.06;100548.44;5022265;28;20048;-75
2022/09/13 09:27:11;;;;;;;11.80;1.95;;;;;;;19.44;70.72;100561.22;5022996;28;20022;-73
2022/09/13 09:29:39;;;;;;;22.00;2.20;;;;;;;18.78;68.67;100561.66;5017795;28;20017;-74
2022/09/13 09:32:22;;;;;;;15.60;1.95;;;;;;;18.88;67.60;100556.53;5022633;28;20030;-75
2022/09/13 09:34:51;;;;;;;14.65;2.40;;;;;;;19.27;67.75;100560.06;5021349;28;20021;-74
2022/09/13 09:37:23;;;;;;;13.82;2.67;;;;;;;19.33;67.66;100561.94;5022305;28;20029;-75
2022/09/13 09:39:51;;;;;;;13.68;1.95;;;;;;;19.38;66.09;100562.09;5022282;28;20040;-74
2022/09/13 09:42:23;;;;;;;6.93;1.83;;;;;;;19.28;66.14;100562.59;5021932;28;20044;-75
2022/09/13 09:44:56;;;;;;;8.13;2.17;;;;;;;19.44;65.50;100551.06;5018609;28;20057;-74
2022/09/13 09:47:24;;;;;;;17.63;2.65;;;;;;;19.50;65.92;100560.31;5021866;28;20017;-74
2022/09/13 09:50:08;;;;;;;24.73;2.60;;;;;;;19.67;65.08;100550.44;5023079;28;20122;-75
2022/09/13 09:52:50;;;;;;;8.85;2.03;;;;;;;19.67;64.71;100566.94;5022874;28;20025;-74
2022/09/13 09:55:25;;;;;;;18.15;2.60;;;;;;;19.74;63.92;100551.22;5023550;28;20026;-74
2022/09/13 09:57:59;;;;;;;8.60;1.52;;;;;;;20.24;62.57;100555.78;5022843;28;20139;-74
2022/09/13 10:00:34;;;;;;;10.50;2.10;;;;;;;20.15;62.00;100563.50;5022628;28;20406;-74
2022/09/13 10:03:17;;;;;;;9.30;1.75;;;;;;;19.30;62.74;100562.34;5018639;28;20132;-75
2022/09/13 10:05:42;;;;;;;12.48;1.80;;;;;;;19.60;62.56;100560.66;5019873;28;20021;-75
2022/09/13 10:08:34;;;;;;;16.55;2.33;;;;;;;19.92;62.61;100549.56;5021438;28;20094;-75
2022/09/13 10:11:01;;;;;;;11.60;1.67;;;;;;;20.23;61.25;100548.59;5021216;28;20022;-74
2022/09/13 10:13:27;;;;;;;8.80;2.30;;;;;;;20.30;60.04;100555.69;5020954;28;20013;-74
2022/09/13 10:15:57;;;;;;;12.23;1.30;;;;;;;20.31;59.71;100546.38;5022550;28;20084;-73
2022/09/13 10:18:24;;;;;;;12.20;1.80;;;;;;;20.62;58.83;100536.28;5021168;28;20512;-74
2022/09/13 10:21:23;;;;;;;12.07;1.85;;;;;;;20.41;59.09;100539.47;5021401;28;20041;-74
2022/09/13 10:23:50;;;;;;;12.82;2.20;;;;;;;20.79;59.89;100531.78;5017130;28;20046;-74
2022/09/13 10:26:19;;;;;;;11.45;2.30;;;;;;;20.38;57.48;100534.44;5015961;28;20017;-74
2022/09/13 10:29:00;;;;;;;9.85;2.08;;;;;;;20.51;58.08;100539.81;5023413;28;20032;-74
2022/09/13 10:31:30;;;;;;;15.25;1.90;;;;;;;20.40;58.20;100532.31;5022491;28;20109;-74
2022/09/13 10:34:04;;;;;;;13.07;3.25;;;;;;;20.59;58.43;100542.22;5019856;28;20029;-74
2022/09/13 10:36:34;;;;;;;14.55;1.90;;;;;;;20.83;56.33;100537.69;5021720;28;20057;-74
2022/09/13 10:39:16;;;;;;;11.27;2.00;;;;;;;20.91;56.79;100544.75;5020186;28;20029;-74
2022/09/13 10:41:58;;;;;;;13.65;2.30;;;;;;;21.40;55.70;100543.59;5020593;28;20488;-74
2022/09/13 10:44:30;;;;;;;14.48;2.03;;;;;;;21.29;55.64;100548.00;5015412;28;20049;-74
2022/09/13 10:47:00;;;;;;;12.27;2.03;;;;;;;20.80;55.78;100547.25;5019811;28;20033;-74
2022/09/13 10:49:44;;;;;;;9.85;1.52;;;;;;;21.52;53.97;100540.84;5020278;28;20026;-74
2022/09/13 10:52:28;;;;;;;9.18;1.70;;;;;;;21.92;52.26;100539.06;5019319;28;20017;-74
2022/09/13 10:54:54;;;;;;;16.50;2.92;;;;;;;21.75;53.45;100540.84;5018920;28;20068;-74
2022/09/13 10:57:32;;;;;;;15.27;2.95;;;;;;;21.38;54.71;100552.06;5019237;28;20075;-74
2022/09/13 10:59:58;;;;;;;7.95;1.98;;;;;;;21.39;53.07;100531.75;5020658;28;20017;-74
2022/09/13 11:02:35;;;;;;;8.00;1.58;;;;;;;21.57;53.62;100549.22;5017328;28;20091;-74
2022/09/13 11:05:17;;;;;;;15.00;2.65;;;;;;;21.68;52.46;100537.38;5021706;28;20116;-74
2022/09/13 11:07:46;;;;;;;12.75;1.90;;;;;;;21.51;51.27;100552.94;5021625;28;20025;-74
2022/09/13 11:10:38;;;;;;;10.38;2.13;;;;;;;22.01;51.24;100534.00;5026211;28;20021;-74
2022/09/13 11:13:41;;;;;;;12.57;1.95;;;;;;;21.78;50.76;100523.84;5027329;28;20026;-74
2022/09/13 11:16:31;;;;;;;10.93;2.03;;;;;;;21.91;51.04;100523.59;5027389;28;20064;-74
2022/09/13 11:19:07;;;;;;;9.20;1.67;;;;;;;20.88;53.52;100535.06;5024777;28;20060;-75
2022/09/13 11:21:50;;;;;;;12.45;1.92;;;;;;;21.38;52.86;100552.06;5020449;28;20024;-74
2022/09/13 11:24:28;;;;;;;12.43;2.53;;;;;;;21.15;52.94;100527.22;5019425;28;20113;-74
2022/09/13 11:27:01;;;;;;;11.05;1.98;;;;;;;20.94;53.62;100519.53;5017643;28;20033;-74
2022/09/13 11:29:49;;;;;;;9.27;1.75;;;;;;;20.92;53.72;100528.00;5022837;28;20435;-74
2022/09/13 11:32:35;;;;;;;12.18;2.05;;;;;;;20.95;54.12;100526.72;5020876;28;20040;-73
2022/09/13 11:35:34;;;;;;;9.65;1.85;;;;;;;22.02;51.37;100518.28;5019279;28;20501;-74